Harvest Peace — V7VE7 — position and weather

sailwx.info

Track history (hours):
 
Tides and Currents Weather Stations Pressure Air Temp Water Temp Dewpoint Dewpoint Depression Visibility Wind Speed Wind Dir Waves Ship Positions

Harvest Peace

Last reported at 2017-Feb-21 13:32 UTC. Time now 2017-Feb-21 19:03 UTC.
Position N 35°58' W 005°47'.

Length 225 m; draft 8.6 m.

Type: Cargo ship. MMSI: 538004103.

Date/timePositionNaut miles runAvg speedWind from/ knotsBaromVisibWave heightAir tempDewpointWater temp
2017-Feb-21 13:32N 35°58' W 005°47'1212.3
2017-Feb-21 12:33N 35°59' W 005°32'1212.4
2017-Feb-21 11:33N 36°02' W 005°17'1312.6
2017-Feb-21 10:34N 36°04' W 005°02'  
2017-Feb-18 11:32N 36°45' E 012°53'4012.6
2017-Feb-18 08:23N 36°37' E 013°42'1012.2
2017-Feb-18 07:33N 36°34' E 013°54'1212.3
2017-Feb-18 06:33N 36°31' E 014°09'1212.4
2017-Feb-18 05:33N 36°29' E 014°24'1212.5
2017-Feb-18 04:33N 36°27' E 014°39'2512.2
2017-Feb-18 02:32N 36°22' E 015°09'  
Track history (hours):
 
Tides and Currents Weather Stations Pressure Air Temp Water Temp Dewpoint Dewpoint Depression Visibility Wind Speed Wind Dir Waves Ship Positions

Harvest Peace

Last reported at 2017-Feb-21 13:32 UTC. Time now 2017-Feb-21 19:03 UTC.
Position N 35°58' W 005°47'.

Length 225 m; draft 8.6 m.

Type: Cargo ship. MMSI: 538004103.

Date/timePositionNaut miles runAvg speedWind from/ knotsBaromVisibWave heightAir tempDewpointWater temp
2017-Feb-21 13:32N 35°58' W 005°47'1212.3
2017-Feb-21 12:33N 35°59' W 005°32'1212.4
2017-Feb-21 11:33N 36°02' W 005°17'1312.6
2017-Feb-21 10:34N 36°04' W 005°02'  
2017-Feb-18 11:32N 36°45' E 012°53'4012.6
2017-Feb-18 08:23N 36°37' E 013°42'1012.2
2017-Feb-18 07:33N 36°34' E 013°54'1212.3
2017-Feb-18 06:33N 36°31' E 014°09'1212.4
2017-Feb-18 05:33N 36°29' E 014°24'1212.5
2017-Feb-18 04:33N 36°27' E 014°39'2512.2
2017-Feb-18 02:32N 36°22' E 015°09'  

Dump ship's entire track history